This is the latest recevied weather packets stored in our database for station/object KE4EST. If no packets are shown the sender has not sent any weather packets the latest 10 day(s).
| Time | Temp. | Humidity | Pressure | Rain* | Wind** | Luminosity | Snow |
|---|---|---|---|---|---|---|---|
| 1777693546 | 11.67° C | 82% | 1014.3 hPa | 0 mm | - | 0 W/m² | - |
| 1777693244 | 11.67° C | 83% | 1014.3 hPa | 0 mm | - | 0 W/m² | - |
| 1777692942 | 11.11° C | 85% | 1014.3 hPa | 0 mm | - | 0 W/m² | - |
| 1777692639 | 11.11° C | 88% | 1014.1 hPa | 0 mm | - | 0 W/m² | - |
| 1777692335 | 11.11° C | 87% | 1014.2 hPa | 0 mm | - | 0 W/m² | - |
| 1777692032 | 11.11° C | 88% | 1014.2 hPa | 0 mm | - | 0 W/m² | - |
| 1777691730 | 11.11° C | 88% | 1014.5 hPa | 0 mm | - | 0 W/m² | - |
| 1777691427 | 11.11° C | 88% | 1014.4 hPa | 0 mm | - | 0 W/m² | - |
| 1777691126 | 11.11° C | 87% | 1014.4 hPa | 0 mm | - | 0 W/m² | - |
| 1777690823 | 11.11° C | 85% | 1014.6 hPa | 0 mm | - | 0 W/m² | - |
| 1777690520 | 11.67° C | 87% | 1014.5 hPa | 0 mm | - | 0 W/m² | - |
| 1777690219 | 11.67° C | 87% | 1014.4 hPa | 0 mm | - | 0 W/m² | - |
| 1777689915 | 11.67° C | 86% | 1014.5 hPa | 0 mm | - | 0 W/m² | - |
| 1777689614 | 11.67° C | 86% | 1014.5 hPa | 0 mm | - | 0 W/m² | - |
| 1777689311 | 11.67° C | 85% | 1014.5 hPa | 0 mm | - | 0 W/m² | - |
| 1777689008 | 11.67° C | 84% | 1014.4 hPa | 0 mm | - | 0 W/m² | - |
| 1777688705 | 11.67° C | 84% | 1014.5 hPa | 0 mm | - | 0 W/m² | - |
| 1777688402 | 11.67° C | 84% | 1014.6 hPa | 0 mm | - | 0 W/m² | - |
| 1777688099 | 11.67° C | 85% | 1014.4 hPa | 0 mm | - | 0 W/m² | - |
| 1777687796 | 11.67° C | 84% | 1014.5 hPa | 0 mm | - | 0 W/m² | - |
| 1777687495 | 11.67° C | 79% | 1014.6 hPa | 0 mm | - | 0 W/m² | - |
| 1777687190 | 11.67° C | 82% | 1014.4 hPa | 0 mm | - | 0 W/m² | - |
| 1777686888 | 11.67° C | 82% | 1014.5 hPa | 0 mm | - | 0 W/m² | - |
| 1777686585 | 11.67° C | 81% | 1014.4 hPa | 0 mm | - | 0 W/m² | - |
| 1777686282 | 12.22° C | 81% | 1014.3 hPa | 0 mm | - | 0 W/m² | - |
* Rain latest hour (hover to see other rain measurements)
** Current wind speed in m/s (hover to see current wind gust speed)